Time;durP1;ratioP1;P1;durP2;ratioP2;P2;SDS_P1;SDS_P2;PMS_P1;PMS_P2;Temp;Humidity;BMP_temperature;BMP_pressure;BME280_temperature;BME280_humidity;BME280_pressure;Samples;Min_cycle;Max_cycle;Signal;HPM_P1;HPM_P2
2024/01/29 00:00:52;;;;;;;4.20;3.90;;;;;;;;;;6152644;23;20381;-69
2024/01/29 00:03:18;;;;;;;5.37;3.90;;;;;;;;;;6152323;23;20544;-70
2024/01/29 00:05:44;;;;;;;4.33;3.90;;;;;;;;;;6152541;23;20858;-70
2024/01/29 00:08:11;;;;;;;4.20;3.10;;;;;;;;;;6152875;23;20891;-70
2024/01/29 00:10:37;;;;;;;4.80;4.37;;;;;;;;;;6153122;23;20388;-70
2024/01/29 00:13:03;;;;;;;3.57;3.37;;;;;;;;;;6153032;23;20420;-69
2024/01/29 00:15:29;;;;;;;4.60;3.10;;;;;;;;;;6152478;23;20373;-70
2024/01/29 00:17:55;;;;;;;3.77;3.67;;;;;;;;;;6152245;23;20374;-69
2024/01/29 00:20:20;;;;;;;3.43;3.33;;;;;;;;;;6151489;23;20463;-69
2024/01/29 00:22:46;;;;;;;5.03;4.63;;;;;;;;;;6152517;23;20441;-69
2024/01/29 00:25:13;;;;;;;11.83;6.70;;;;;;;;;;6151490;23;20376;-70
2024/01/29 00:27:39;;;;;;;6.17;5.60;;;;;;;;;;6151417;23;20451;-70
2024/01/29 00:30:06;;;;;;;7.60;6.00;;;;;;;;;;6152451;23;20373;-69
2024/01/29 00:32:32;;;;;;;6.43;5.30;;;;;;;;;;6152075;23;20432;-70
2024/01/29 00:34:58;;;;;;;4.30;4.10;;;;;;;;;;6153190;23;20373;-70
2024/01/29 00:37:26;;;;;;;4.80;4.50;;;;;;;;;;6152192;23;20413;-70
2024/01/29 00:39:52;;;;;;;5.13;4.50;;;;;;;;;;6153212;23;20376;-69
2024/01/29 00:42:18;;;;;;;4.37;4.10;;;;;;;;;;6153049;23;20417;-70
2024/01/29 00:44:49;;;;;;;4.17;3.83;;;;;;;;;;6152721;23;20847;-69
2024/01/29 00:47:15;;;;;;;4.50;4.30;;;;;;;;;;6151725;23;20443;-70
2024/01/29 00:49:41;;;;;;;4.93;4.47;;;;;;;;;;6152736;23;20843;-69
2024/01/29 00:52:07;;;;;;;7.10;5.43;;;;;;;;;;6152839;23;20420;-69
2024/01/29 00:54:33;;;;;;;10.33;6.53;;;;;;;;;;6152204;23;20420;-70
2024/01/29 00:56:59;;;;;;;6.30;5.80;;;;;;;;;;6152391;23;20376;-69
2024/01/29 00:59:25;;;;;;;7.70;6.50;;;;;;;;;;6151220;23;20439;-69
2024/01/29 01:01:51;;;;;;;12.93;7.43;;;;;;;;;;6151702;23;20369;-70
2024/01/29 01:04:17;;;;;;;8.47;7.10;;;;;;;;;;6152658;23;20455;-70
2024/01/29 01:06:45;;;;;;;5.30;4.80;;;;;;;;;;6152161;23;20393;-70
2024/01/29 01:09:11;;;;;;;4.57;4.23;;;;;;;;;;6151920;23;20389;-70
2024/01/29 01:11:37;;;;;;;4.20;4.10;;;;;;;;;;6126519;23;20400;-70
2024/01/29 01:14:03;;;;;;;4.17;3.60;;;;;;;;;;6152410;23;20742;-69
2024/01/29 01:16:29;;;;;;;4.10;3.90;;;;;;;;;;6152106;23;20389;-69
2024/01/29 01:18:55;;;;;;;5.07;4.10;;;;;;;;;;6152671;23;20385;-69
2024/01/29 01:21:21;;;;;;;4.43;4.23;;;;;;;;;;6152560;23;20421;-69
2024/01/29 01:23:47;;;;;;;5.47;4.20;;;;;;;;;;6152444;23;20432;-70
2024/01/29 01:26:14;;;;;;;4.57;4.27;;;;;;;;;;6152520;23;20434;-69
2024/01/29 01:28:39;;;;;;;4.80;4.50;;;;;;;;;;6151835;23;20381;-69
2024/01/29 01:31:06;;;;;;;6.33;5.37;;;;;;;;;;6152654;23;20373;-69
2024/01/29 01:33:31;;;;;;;9.67;5.47;;;;;;;;;;6152916;23;20389;-69
2024/01/29 01:35:57;;;;;;;5.93;5.50;;;;;;;;;;6152341;23;20709;-69
2024/01/29 01:38:23;;;;;;;5.20;4.90;;;;;;;;;;6153232;23;20785;-69
2024/01/29 01:40:49;;;;;;;5.80;5.37;;;;;;;;;;6152394;23;20448;-69
2024/01/29 01:43:23;;;;;;;7.70;5.80;;;;;;;;;;6153383;23;20476;-69
2024/01/29 01:46:01;;;;;;;6.33;5.80;;;;;;;;;;6153816;23;20368;-70
2024/01/29 01:48:27;;;;;;;5.53;5.07;;;;;;;;;;6154649;23;20365;-69
2024/01/29 01:50:53;;;;;;;6.00;5.50;;;;;;;;;;6154266;23;20715;-69
2024/01/29 01:53:19;;;;;;;5.70;5.20;;;;;;;;;;6154685;23;20435;-70
2024/01/29 01:55:45;;;;;;;6.70;6.07;;;;;;;;;;6154051;23;20377;-69
2024/01/29 01:58:13;;;;;;;5.40;5.00;;;;;;;;;;6153262;23;20428;-69
2024/01/29 02:00:39;;;;;;;6.23;5.67;;;;;;;;;;6154183;23;20397;-69
2024/01/29 02:03:05;;;;;;;6.90;6.40;;;;;;;;;;6154172;23;20887;-69
2024/01/29 02:05:31;;;;;;;6.00;5.63;;;;;;;;;;6154487;23;20376;-69
2024/01/29 02:07:57;;;;;;;5.77;5.40;;;;;;;;;;6154654;23;20844;-69
2024/01/29 02:10:23;;;;;;;6.10;4.70;;;;;;;;;;6154058;23;20379;-69
2024/01/29 02:12:49;;;;;;;5.30;4.97;;;;;;;;;;6127440;23;20893;-69
2024/01/29 02:15:15;;;;;;;6.50;5.00;;;;;;;;;;6153825;23;20825;-69
2024/01/29 02:17:41;;;;;;;5.57;5.17;;;;;;;;;;6154533;23;20914;-69
2024/01/29 02:20:08;;;;;;;4.30;4.07;;;;;;;;;;6154000;23;20384;-69
2024/01/29 02:22:34;;;;;;;6.30;5.33;;;;;;;;;;6153541;23;20431;-69
2024/01/29 02:25:00;;;;;;;5.67;5.30;;;;;;;;;;6154150;23;20385;-69
2024/01/29 02:27:26;;;;;;;4.67;4.47;;;;;;;;;;6153418;23;20379;-69
2024/01/29 02:29:52;;;;;;;6.40;4.90;;;;;;;;;;6154528;23;20412;-69
2024/01/29 02:32:18;;;;;;;5.77;5.40;;;;;;;;;;6154216;23;20377;-69
2024/01/29 02:34:44;;;;;;;5.80;5.30;;;;;;;;;;6153495;23;20431;-69
2024/01/29 02:37:10;;;;;;;5.90;5.37;;;;;;;;;;6153507;23;20369;-69
2024/01/29 02:39:36;;;;;;;6.60;6.10;;;;;;;;;;6153708;23;20384;-69
2024/01/29 02:42:02;;;;;;;6.30;5.80;;;;;;;;;;6153809;23;20376;-69
2024/01/29 02:44:28;;;;;;;6.83;6.20;;;;;;;;;;6126978;23;20399;-69
2024/01/29 02:46:54;;;;;;;6.67;6.17;;;;;;;;;;6153570;23;20372;-69
2024/01/29 02:49:20;;;;;;;6.87;6.27;;;;;;;;;;6153786;23;20412;-69
2024/01/29 02:51:46;;;;;;;6.07;5.47;;;;;;;;;;6154330;23;20377;-69
2024/01/29 02:54:12;;;;;;;6.87;6.27;;;;;;;;;;6152931;23;20767;-70
2024/01/29 02:56:38;;;;;;;6.30;5.80;;;;;;;;;;6127072;23;20385;-69
2024/01/29 02:59:04;;;;;;;6.53;6.03;;;;;;;;;;6151738;23;20470;-69
2024/01/29 03:01:30;;;;;;;7.60;6.77;;;;;;;;;;6153340;23;20380;-70
2024/01/29 03:03:56;;;;;;;9.27;5.70;;;;;;;;;;6153845;23;20440;-69
2024/01/29 03:06:22;;;;;;;6.90;6.27;;;;;;;;;;6153165;23;20369;-69
2024/01/29 03:08:48;;;;;;;6.20;5.90;;;;;;;;;;6153307;23;20377;-69
2024/01/29 03:11:14;;;;;;;6.80;6.20;;;;;;;;;;6127340;23;20431;-69
2024/01/29 03:13:40;;;;;;;8.57;6.70;;;;;;;;;;6153382;23;20555;-69
2024/01/29 03:16:07;;;;;;;7.13;6.40;;;;;;;;;;6153496;23;20377;-69
2024/01/29 03:18:33;;;;;;;9.87;7.50;;;;;;;;;;6153681;23;20399;-69
2024/01/29 03:20:59;;;;;;;7.80;7.10;;;;;;;;;;6127682;23;20381;-69
2024/01/29 03:23:25;;;;;;;7.30;6.70;;;;;;;;;;6153617;23;20468;-69
2024/01/29 03:25:50;;;;;;;6.63;6.03;;;;;;;;;;6152463;23;20484;-69
2024/01/29 03:28:16;;;;;;;7.73;6.43;;;;;;;;;;6152410;23;20389;-69
2024/01/29 03:30:42;;;;;;;9.73;6.97;;;;;;;;;;6153638;23;20373;-69
2024/01/29 03:33:08;;;;;;;8.10;6.80;;;;;;;;;;6153869;23;20862;-69
2024/01/29 03:35:34;;;;;;;6.70;6.10;;;;;;;;;;6152342;23;20423;-69
2024/01/29 03:38:00;;;;;;;8.47;6.77;;;;;;;;;;6152960;23;20381;-69
2024/01/29 03:40:26;;;;;;;6.63;5.97;;;;;;;;;;6153399;23;20373;-69
2024/01/29 03:42:52;;;;;;;6.97;6.47;;;;;;;;;;6152668;23;20452;-69
2024/01/29 03:45:18;;;;;;;8.50;6.13;;;;;;;;;;6153256;23;20372;-69
2024/01/29 03:47:44;;;;;;;6.17;5.77;;;;;;;;;;6152987;23;20461;-69
2024/01/29 03:50:10;;;;;;;10.30;9.20;;;;;;;;;;6152864;23;20381;-69
2024/01/29 03:52:36;;;;;;;7.20;6.60;;;;;;;;;;6153851;23;20747;-69
2024/01/29 03:55:02;;;;;;;7.23;6.60;;;;;;;;;;6152830;23;20448;-69
2024/01/29 03:57:28;;;;;;;6.93;6.37;;;;;;;;;;6152738;23;20389;-69
2024/01/29 03:59:56;;;;;;;6.73;6.20;;;;;;;;;;6152767;23;20483;-69
2024/01/29 04:02:23;;;;;;;6.50;6.10;;;;;;;;;;6153886;23;20424;-69
2024/01/29 04:04:49;;;;;;;6.93;6.30;;;;;;;;;;6153474;23;20397;-69
2024/01/29 04:07:16;;;;;;;8.30;6.40;;;;;;;;;;6152021;23;20373;-69
2024/01/29 04:09:42;;;;;;;6.97;6.27;;;;;;;;;;6153249;23;20377;-69
2024/01/29 04:12:09;;;;;;;9.87;6.50;;;;;;;;;;6126856;23;20392;-69
2024/01/29 04:14:35;;;;;;;7.10;6.47;;;;;;;;;;6153322;23;20469;-69
2024/01/29 04:17:05;;;;;;;7.20;6.50;;;;;;;;;;6151532;23;20412;-69
2024/01/29 04:19:31;;;;;;;7.63;7.03;;;;;;;;;;6152375;23;20935;-69
2024/01/29 04:21:57;;;;;;;8.03;7.23;;;;;;;;;;6153616;23;20431;-69
2024/01/29 04:24:23;;;;;;;7.03;6.43;;;;;;;;;;6153085;23;20772;-69
2024/01/29 04:26:49;;;;;;;8.07;7.27;;;;;;;;;;6152689;23;20859;-69
2024/01/29 04:29:15;;;;;;;8.17;7.50;;;;;;;;;;6126011;23;20867;-69
2024/01/29 04:31:41;;;;;;;8.20;7.53;;;;;;;;;;6153154;23;20467;-69
2024/01/29 04:34:09;;;;;;;8.20;7.50;;;;;;;;;;6153373;23;20698;-69
2024/01/29 04:36:35;;;;;;;7.70;6.87;;;;;;;;;;6152501;23;20380;-69
2024/01/29 04:39:01;;;;;;;11.10;7.27;;;;;;;;;;6152942;23;20393;-69
2024/01/29 04:41:27;;;;;;;7.77;7.17;;;;;;;;;;6153001;23;20380;-69
2024/01/29 04:43:53;;;;;;;10.87;7.27;;;;;;;;;;6152505;23;20469;-69
2024/01/29 04:46:19;;;;;;;7.30;6.60;;;;;;;;;;6152431;23;20412;-69
2024/01/29 04:48:45;;;;;;;8.67;7.20;;;;;;;;;;6153027;23;20377;-69
2024/01/29 04:51:12;;;;;;;6.90;6.40;;;;;;;;;;6152900;23;20468;-69
2024/01/29 04:53:38;;;;;;;7.73;7.07;;;;;;;;;;6152712;23;20413;-69
2024/01/29 04:56:04;;;;;;;6.60;6.10;;;;;;;;;;6152517;23;20385;-69
2024/01/29 04:58:30;;;;;;;7.23;6.63;;;;;;;;;;6151691;23;20428;-69
2024/01/29 05:00:56;;;;;;;7.93;7.17;;;;;;;;;;6153214;23;20372;-69
2024/01/29 05:03:22;;;;;;;14.40;6.57;;;;;;;;;;6153185;23;20443;-69
2024/01/29 05:05:48;;;;;;;8.00;7.23;;;;;;;;;;6152770;23;20714;-69
2024/01/29 05:08:14;;;;;;;11.17;7.00;;;;;;;;;;6152400;23;20834;-69
2024/01/29 05:10:40;;;;;;;6.63;6.13;;;;;;;;;;6153010;23;20369;-69
2024/01/29 05:13:06;;;;;;;7.93;7.10;;;;;;;;;;6152099;23;20428;-69
2024/01/29 05:15:34;;;;;;;11.17;6.90;;;;;;;;;;6151933;23;20385;-69
2024/01/29 05:18:00;;;;;;;8.03;7.23;;;;;;;;;;6153460;23;20381;-69
2024/01/29 05:20:26;;;;;;;8.30;7.13;;;;;;;;;;6155035;23;20404;-69
2024/01/29 05:22:52;;;;;;;6.73;6.27;;;;;;;;;;6128382;23;20443;-69
2024/01/29 05:25:18;;;;;;;6.87;6.37;;;;;;;;;;6152132;23;20728;-69
2024/01/29 05:27:44;;;;;;;8.23;7.47;;;;;;;;;;6154013;23;20439;-69
2024/01/29 05:30:10;;;;;;;8.20;7.27;;;;;;;;;;6154992;23;20472;-70
2024/01/29 05:32:36;;;;;;;6.90;6.27;;;;;;;;;;6155342;23;20392;-69
2024/01/29 05:35:02;;;;;;;7.50;6.80;;;;;;;;;;6154152;23;20443;-69
2024/01/29 05:37:31;;;;;;;8.30;6.80;;;;;;;;;;6154253;23;20384;-69
2024/01/29 05:39:57;;;;;;;7.93;6.50;;;;;;;;;;6154743;23;20369;-69
2024/01/29 05:42:23;;;;;;;7.60;7.00;;;;;;;;;;6153760;23;20744;-69
2024/01/29 05:44:49;;;;;;;6.83;5.83;;;;;;;;;;6154860;23;20463;-69
2024/01/29 05:47:16;;;;;;;12.80;7.80;;;;;;;;;;6153446;23;20365;-69
2024/01/29 05:49:42;;;;;;;10.90;7.50;;;;;;;;;;6154020;23;20439;-69
2024/01/29 05:52:08;;;;;;;6.67;6.23;;;;;;;;;;6154478;23;20412;-69
2024/01/29 05:54:34;;;;;;;6.87;6.30;;;;;;;;;;6154366;23;20431;-69
2024/01/29 05:57:00;;;;;;;11.97;7.50;;;;;;;;;;6153070;23;20377;-69
2024/01/29 05:59:26;;;;;;;6.20;5.73;;;;;;;;;;6154147;23;20954;-69
2024/01/29 06:01:52;;;;;;;6.70;6.10;;;;;;;;;;6127981;23;20385;-69
2024/01/29 06:04:18;;;;;;;8.17;6.40;;;;;;;;;;6153803;23;20937;-69
2024/01/29 06:06:44;;;;;;;8.63;7.23;;;;;;;;;;6153596;23;20435;-69
2024/01/29 06:09:10;;;;;;;11.80;6.43;;;;;;;;;;6154065;23;20387;-70
2024/01/29 06:11:37;;;;;;;7.73;7.03;;;;;;;;;;6153909;23;20409;-69
2024/01/29 06:14:03;;;;;;;6.57;6.00;;;;;;;;;;6153553;23;20491;-70
2024/01/29 06:16:29;;;;;;;5.70;5.30;;;;;;;;;;6153778;23;20381;-69
2024/01/29 06:18:56;;;;;;;6.20;5.80;;;;;;;;;;6154124;23;20372;-70
2024/01/29 06:21:22;;;;;;;7.43;6.23;;;;;;;;;;6154570;23;20388;-69
2024/01/29 06:23:48;;;;;;;6.70;6.23;;;;;;;;;;6154056;23;20468;-70
2024/01/29 06:26:14;;;;;;;7.00;6.40;;;;;;;;;;6152337;23;21213;-69
2024/01/29 06:28:44;;;;;;;6.57;5.87;;;;;;;;;;6152782;23;20381;-70
2024/01/29 06:31:10;;;;;;;7.53;6.90;;;;;;;;;;6153787;23;20385;-70
2024/01/29 06:33:38;;;;;;;9.80;6.80;;;;;;;;;;6127712;23;20773;-70
2024/01/29 06:36:04;;;;;;;7.20;6.40;;;;;;;;;;6152580;23;20392;-70
2024/01/29 06:38:30;;;;;;;7.63;6.93;;;;;;;;;;6153092;23;20385;-70
2024/01/29 06:40:57;;;;;;;7.77;7.07;;;;;;;;;;6153367;23;20383;-70
2024/01/29 06:43:23;;;;;;;8.37;7.33;;;;;;;;;;6149888;23;20817;-70
2024/01/29 06:45:49;;;;;;;6.97;6.07;;;;;;;;;;6152711;23;20432;-70
2024/01/29 06:48:15;;;;;;;8.73;5.93;;;;;;;;;;6154401;23;20443;-70
2024/01/29 06:50:41;;;;;;;6.97;6.30;;;;;;;;;;6153776;23;20790;-70
2024/01/29 06:53:06;;;;;;;9.70;7.37;;;;;;;;;;6126576;23;20393;-70
2024/01/29 06:55:32;;;;;;;8.83;8.03;;;;;;;;;;6152835;23;20451;-70
2024/01/29 06:57:58;;;;;;;12.83;8.37;;;;;;;;;;6153075;23;20432;-70
2024/01/29 07:00:24;;;;;;;7.20;6.60;;;;;;;;;;6154337;23;20372;-70
2024/01/29 07:02:50;;;;;;;13.67;9.27;;;;;;;;;;6153489;23;21084;-69
2024/01/29 07:05:16;;;;;;;10.07;8.00;;;;;;;;;;6152584;23;20400;-70
2024/01/29 07:07:42;;;;;;;9.83;8.13;;;;;;;;;;6126656;23;20455;-70
2024/01/29 07:10:08;;;;;;;14.33;9.30;;;;;;;;;;6154216;23;20902;-70
2024/01/29 07:12:34;;;;;;;13.60;7.70;;;;;;;;;;6152870;23;20384;-70
2024/01/29 07:15:01;;;;;;;7.83;7.10;;;;;;;;;;6153277;23;20389;-70
2024/01/29 07:17:27;;;;;;;17.13;9.20;;;;;;;;;;6152311;23;20874;-70
2024/01/29 07:19:53;;;;;;;8.60;6.63;;;;;;;;;;6153297;23;20388;-70
2024/01/29 07:22:21;;;;;;;7.43;6.73;;;;;;;;;;6153345;23;20468;-70
2024/01/29 07:24:48;;;;;;;12.03;7.03;;;;;;;;;;6153793;23;20936;-70
2024/01/29 07:27:15;;;;;;;18.20;6.80;;;;;;;;;;6151268;23;20384;-70
2024/01/29 07:29:40;;;;;;;13.67;7.60;;;;;;;;;;6153436;23;20389;-70
2024/01/29 07:32:07;;;;;;;8.77;6.80;;;;;;;;;;6127697;23;20432;-69
2024/01/29 07:34:33;;;;;;;7.40;6.67;;;;;;;;;;6153638;23;20409;-70
2024/01/29 07:36:59;;;;;;;10.90;7.43;;;;;;;;;;6151854;23;20430;-70
2024/01/29 07:39:25;;;;;;;8.00;7.07;;;;;;;;;;6153739;23;20401;-70
2024/01/29 07:41:51;;;;;;;19.03;8.67;;;;;;;;;;6152391;23;20400;-70
2024/01/29 07:44:17;;;;;;;12.10;6.90;;;;;;;;;;6152218;23;20440;-69
2024/01/29 07:46:43;;;;;;;8.40;6.67;;;;;;;;;;6149893;23;20767;-69
2024/01/29 07:49:10;;;;;;;11.80;8.60;;;;;;;;;;6124376;23;20448;-63
2024/01/29 07:51:40;;;;;;;8.90;7.87;;;;;;;;;;6152648;23;20408;-70
2024/01/29 07:54:06;;;;;;;9.77;8.67;;;;;;;;;;6153525;23;20420;-70
2024/01/29 07:56:32;;;;;;;18.53;7.93;;;;;;;;;;6151388;23;20381;-70
2024/01/29 07:58:58;;;;;;;7.53;6.67;;;;;;;;;;6152356;23;20432;-69
2024/01/29 08:01:24;;;;;;;9.40;6.63;;;;;;;;;;6150781;23;20393;-70
2024/01/29 08:03:50;;;;;;;6.27;5.77;;;;;;;;;;6152221;23;20440;-70
2024/01/29 08:06:16;;;;;;;11.57;10.37;;;;;;;;;;6151656;23;20388;-70
2024/01/29 08:08:42;;;;;;;9.60;8.73;;;;;;;;;;6152666;23;20774;-69
2024/01/29 08:11:09;;;;;;;6.77;6.27;;;;;;;;;;6152725;23;20379;-70
2024/01/29 08:13:34;;;;;;;11.33;7.73;;;;;;;;;;6126512;23;20396;-70
2024/01/29 08:16:00;;;;;;;11.80;7.77;;;;;;;;;;6153165;23;20380;-70
2024/01/29 08:18:27;;;;;;;6.87;6.27;;;;;;;;;;6152801;23;20479;-70
2024/01/29 08:20:53;;;;;;;11.77;6.00;;;;;;;;;;6127021;23;20863;-69
2024/01/29 08:23:18;;;;;;;7.83;5.50;;;;;;;;;;6154369;23;20437;-70
2024/01/29 08:25:45;;;;;;;7.00;5.70;;;;;;;;;;6153023;23;20411;-69
2024/01/29 08:28:11;;;;;;;5.77;5.30;;;;;;;;;;6149948;23;20516;-69
2024/01/29 08:30:37;;;;;;;6.73;5.60;;;;;;;;;;6151440;23;20386;-69
2024/01/29 08:33:03;;;;;;;5.00;4.60;;;;;;;;;;6151063;23;20480;-69
2024/01/29 08:35:29;;;;;;;5.10;4.80;;;;;;;;;;6151148;23;20436;-69
2024/01/29 08:37:55;;;;;;;5.43;4.73;;;;;;;;;;6151647;23;20393;-69
2024/01/29 08:40:21;;;;;;;4.90;4.60;;;;;;;;;;6151225;23;20390;-69
2024/01/29 08:42:47;;;;;;;5.20;4.90;;;;;;;;;;6150270;23;20692;-70
2024/01/29 08:45:19;;;;;;;10.47;7.07;;;;;;;;;;6124721;23;20847;-69
2024/01/29 08:47:45;;;;;;;6.80;6.30;;;;;;;;;;6125100;23;20396;-60
2024/01/29 08:50:11;;;;;;;5.43;5.03;;;;;;;;;;6151689;23;20480;-70
2024/01/29 08:52:38;;;;;;;9.40;5.37;;;;;;;;;;6124591;23;20835;-70
2024/01/29 08:55:06;;;;;;;6.40;5.77;;;;;;;;;;6150656;23;20443;-70
2024/01/29 08:57:32;;;;;;;4.70;4.40;;;;;;;;;;6150588;23;20392;-69
2024/01/29 08:59:58;;;;;;;5.33;4.83;;;;;;;;;;6151193;23;20730;-70
2024/01/29 09:02:27;;;;;;;7.60;5.67;;;;;;;;;;6151011;23;20399;-70
2024/01/29 09:04:54;;;;;;;16.17;9.47;;;;;;;;;;6151294;23;20400;-70
2024/01/29 09:07:20;;;;;;;6.60;6.00;;;;;;;;;;6150344;23;20460;-70
2024/01/29 09:09:47;;;;;;;8.40;6.00;;;;;;;;;;6150991;23;20404;-71
2024/01/29 09:12:13;;;;;;;9.90;7.27;;;;;;;;;;6150128;23;20390;-70
2024/01/29 09:14:39;;;;;;;6.93;5.90;;;;;;;;;;6142331;23;20380;-70
2024/01/29 09:17:05;;;;;;;6.93;6.23;;;;;;;;;;6147943;23;20392;-70
2024/01/29 09:19:30;;;;;;;32.47;21.77;;;;;;;;;;6151266;23;20377;-70
2024/01/29 09:21:56;;;;;;;90.40;49.00;;;;;;;;;;6124337;23;20411;-70
2024/01/29 09:24:22;;;;;;;40.00;23.83;;;;;;;;;;6150392;23;20515;-70
2024/01/29 09:26:48;;;;;;;50.13;29.43;;;;;;;;;;6151200;23;20404;-70
2024/01/29 09:29:14;;;;;;;30.30;22.37;;;;;;;;;;6150748;23;20381;-66
2024/01/29 09:31:42;;;;;;;20.37;15.97;;;;;;;;;;6151354;23;20381;-70
2024/01/29 09:34:08;;;;;;;20.03;16.40;;;;;;;;;;6146805;23;20392;-69
2024/01/29 09:36:35;;;;;;;17.13;11.10;;;;;;;;;;6150193;23;20377;-69
2024/01/29 09:39:01;;;;;;;10.60;7.07;;;;;;;;;;6124601;23;20891;-69
2024/01/29 09:41:32;;;;;;;5.07;4.80;;;;;;;;;;6151072;23;20687;-69
2024/01/29 09:44:00;;;;;;;4.37;4.17;;;;;;;;;;6151007;23;20923;-70
2024/01/29 09:46:26;;;;;;;6.23;4.60;;;;;;;;;;6149275;23;20396;-69
2024/01/29 09:48:52;;;;;;;7.40;5.50;;;;;;;;;;6150290;23;20373;-69
2024/01/29 09:51:20;;;;;;;4.77;4.17;;;;;;;;;;6150891;23;20381;-69
2024/01/29 09:53:47;;;;;;;4.87;4.40;;;;;;;;;;6150682;23;20456;-69
2024/01/29 09:56:14;;;;;;;5.27;4.87;;;;;;;;;;6150361;23;20385;-70
2024/01/29 09:58:40;;;;;;;4.47;4.27;;;;;;;;;;6150784;23;20487;-69
2024/01/29 10:01:09;;;;;;;5.37;5.07;;;;;;;;;;6150373;23;20377;-64
2024/01/29 10:03:38;;;;;;;6.53;5.77;;;;;;;;;;6151258;23;20907;-69
2024/01/29 10:06:04;;;;;;;8.33;5.20;;;;;;;;;;6152439;23;20380;-70
2024/01/29 10:08:32;;;;;;;8.70;6.40;;;;;;;;;;6125845;23;20476;-70
2024/01/29 10:10:58;;;;;;;7.03;5.97;;;;;;;;;;6153219;23;20711;-69
2024/01/29 10:13:24;;;;;;;6.77;6.17;;;;;;;;;;6150946;23;20377;-70
2024/01/29 10:15:52;;;;;;;7.27;6.77;;;;;;;;;;6125557;23;20396;-70
2024/01/29 10:18:18;;;;;;;6.73;5.97;;;;;;;;;;6125251;23;20399;-69
2024/01/29 10:20:44;;;;;;;6.67;6.07;;;;;;;;;;6152257;23;20455;-70
2024/01/29 10:23:10;;;;;;;10.60;7.03;;;;;;;;;;6151993;23;20467;-70
2024/01/29 10:25:38;;;;;;;6.57;6.07;;;;;;;;;;6151188;23;20464;-70
2024/01/29 10:28:11;;;;;;;10.17;5.97;;;;;;;;;;6151353;23;20395;-70
2024/01/29 10:30:39;;;;;;;6.73;6.33;;;;;;;;;;6151980;23;20400;-70
2024/01/29 10:33:05;;;;;;;9.37;6.10;;;;;;;;;;6152238;23;20391;-71
2024/01/29 10:35:31;;;;;;;7.70;5.77;;;;;;;;;;6151831;23;20421;-70
2024/01/29 10:38:06;;;;;;;6.47;5.50;;;;;;;;;;6123192;23;20392;-71
2024/01/29 10:40:33;;;;;;;5.97;5.40;;;;;;;;;;6125933;23;20376;-70
2024/01/29 10:42:59;;;;;;;7.50;6.00;;;;;;;;;;6152172;23;20435;-69
2024/01/29 10:45:26;;;;;;;11.93;6.27;;;;;;;;;;6151611;23;20427;-70
2024/01/29 10:48:18;;;;;;;5.97;5.47;;;;;;;;;;6152793;23;20378;-70
2024/01/29 10:50:45;;;;;;;6.07;5.50;;;;;;;;;;6147402;23;20388;-71
2024/01/29 10:53:13;;;;;;;6.00;5.60;;;;;;;;;;6126267;23;20886;-70
2024/01/29 10:55:39;;;;;;;5.33;5.03;;;;;;;;;;6151465;23;20436;-70
2024/01/29 10:58:06;;;;;;;6.93;5.53;;;;;;;;;;6151170;23;20425;-71
2024/01/29 11:00:32;;;;;;;6.97;5.60;;;;;;;;;;6151792;23;20381;-71
2024/01/29 11:03:02;;;;;;;9.77;7.80;;;;;;;;;;6152213;23;20969;-71
2024/01/29 11:05:28;;;;;;;6.33;5.70;;;;;;;;;;6152133;23;20388;-70
2024/01/29 11:07:56;;;;;;;6.53;5.93;;;;;;;;;;6149544;23;20408;-70
2024/01/29 11:10:22;;;;;;;6.47;5.90;;;;;;;;;;6150230;23;20400;-70
2024/01/29 11:12:49;;;;;;;6.00;5.60;;;;;;;;;;6149187;23;20377;-72
2024/01/29 11:15:15;;;;;;;9.30;8.50;;;;;;;;;;6122602;23;20373;-70
2024/01/29 11:17:42;;;;;;;6.37;5.80;;;;;;;;;;6149931;23;20377;-70
2024/01/29 11:20:12;;;;;;;5.20;4.80;;;;;;;;;;6150794;23;20378;-70
2024/01/29 11:22:41;;;;;;;6.80;6.37;;;;;;;;;;6150732;23;20412;-70
2024/01/29 11:25:14;;;;;;;5.40;4.80;;;;;;;;;;6151847;23;20401;-70
2024/01/29 11:27:41;;;;;;;8.70;6.13;;;;;;;;;;6150967;23;20822;-70
2024/01/29 11:30:11;;;;;;;5.33;5.13;;;;;;;;;;6150990;23;20475;-71
2024/01/29 11:32:40;;;;;;;6.73;4.63;;;;;;;;;;6151591;23;20469;-70
2024/01/29 11:35:13;;;;;;;5.93;5.63;;;;;;;;;;6151470;23;20388;-70
2024/01/29 11:37:39;;;;;;;31.37;20.23;;;;;;;;;;6151707;23;20718;-70
2024/01/29 11:40:05;;;;;;;8.83;8.00;;;;;;;;;;6125510;23;20433;-71
2024/01/29 11:42:31;;;;;;;9.73;8.43;;;;;;;;;;6151291;23;20389;-71
2024/01/29 11:44:58;;;;;;;4.17;3.97;;;;;;;;;;6125627;23;20484;-71
2024/01/29 11:47:24;;;;;;;5.23;4.93;;;;;;;;;;6151199;23;20393;-71
2024/01/29 11:49:50;;;;;;;5.63;5.10;;;;;;;;;;6151650;23;20474;-64
2024/01/29 11:52:16;;;;;;;9.93;7.10;;;;;;;;;;6151316;23;20464;-71
2024/01/29 11:54:43;;;;;;;4.70;4.00;;;;;;;;;;6149349;23;20789;-70
2024/01/29 11:57:09;;;;;;;7.97;5.97;;;;;;;;;;6150073;23;20468;-71
2024/01/29 11:59:48;;;;;;;9.50;7.20;;;;;;;;;;6125350;23;20519;-71
2024/01/29 12:02:14;;;;;;;4.20;4.10;;;;;;;;;;6151893;23;20369;-71
2024/01/29 12:04:40;;;;;;;4.90;4.20;;;;;;;;;;6151500;23;20444;-71
2024/01/29 12:07:06;;;;;;;5.60;5.30;;;;;;;;;;6150758;23;20858;-71
2024/01/29 12:09:33;;;;;;;4.63;4.33;;;;;;;;;;6150514;23;20443;-71
2024/01/29 12:11:59;;;;;;;8.37;4.97;;;;;;;;;;6151888;23;20397;-71
2024/01/29 12:14:25;;;;;;;5.70;5.30;;;;;;;;;;6125823;23;20374;-71
2024/01/29 12:16:51;;;;;;;5.73;5.00;;;;;;;;;;6150554;23;20377;-71
2024/01/29 12:19:17;;;;;;;8.43;4.53;;;;;;;;;;6151711;23;20472;-71
2024/01/29 12:21:43;;;;;;;4.27;3.97;;;;;;;;;;6151765;23;20464;-71
2024/01/29 12:24:09;;;;;;;5.83;5.30;;;;;;;;;;6151925;23;20919;-71
2024/01/29 12:26:38;;;;;;;4.60;4.20;;;;;;;;;;6124101;23;20447;-71
2024/01/29 12:29:04;;;;;;;7.90;4.57;;;;;;;;;;6151038;23;20411;-71
2024/01/29 12:31:30;;;;;;;8.43;5.80;;;;;;;;;;6151805;23;20409;-70
2024/01/29 12:33:56;;;;;;;4.50;4.20;;;;;;;;;;6151830;23;20396;-71
2024/01/29 12:36:22;;;;;;;5.07;4.67;;;;;;;;;;6150841;23;20389;-71
2024/01/29 12:38:53;;;;;;;5.60;5.10;;;;;;;;;;6152420;23;20466;-71
2024/01/29 12:41:20;;;;;;;4.70;4.20;;;;;;;;;;6151412;23;20385;-70
2024/01/29 12:43:45;;;;;;;5.33;4.40;;;;;;;;;;6152228;23;20543;-70
2024/01/29 12:46:12;;;;;;;5.57;3.83;;;;;;;;;;6150656;23;20385;-70
2024/01/29 12:48:38;;;;;;;6.03;3.60;;;;;;;;;;6150554;23;20384;-70
2024/01/29 12:51:07;;;;;;;4.87;4.57;;;;;;;;;;6150676;23;20376;-71
2024/01/29 12:53:33;;;;;;;4.50;3.60;;;;;;;;;;6151181;23;20412;-71
2024/01/29 12:55:59;;;;;;;3.63;3.43;;;;;;;;;;6150601;23;20385;-72
2024/01/29 12:58:25;;;;;;;3.43;3.33;;;;;;;;;;6150649;23;20519;-71
2024/01/29 13:00:52;;;;;;;3.93;3.40;;;;;;;;;;6150951;23;20415;-72
2024/01/29 13:03:18;;;;;;;4.27;3.90;;;;;;;;;;6150154;23;20442;-71
2024/01/29 13:05:44;;;;;;;37.83;16.57;;;;;;;;;;6149383;23;20377;-71
2024/01/29 13:08:10;;;;;;;10.10;7.83;;;;;;;;;;6151135;23;20459;-71
2024/01/29 13:10:37;;;;;;;8.37;5.33;;;;;;;;;;6124970;23;20902;-71
2024/01/29 13:13:04;;;;;;;7.47;6.43;;;;;;;;;;6150613;23;20441;-71
2024/01/29 13:15:31;;;;;;;4.63;4.30;;;;;;;;;;6150068;23;20377;-65
2024/01/29 13:17:57;;;;;;;16.47;11.40;;;;;;;;;;6150572;23;20765;-71
2024/01/29 13:20:23;;;;;;;5.00;4.80;;;;;;;;;;6124208;23;20949;-71
2024/01/29 13:22:49;;;;;;;10.03;4.87;;;;;;;;;;6150189;23;20424;-71
2024/01/29 13:25:15;;;;;;;8.43;5.30;;;;;;;;;;6150632;23;20388;-67
2024/01/29 13:27:41;;;;;;;4.53;4.17;;;;;;;;;;6150603;23;20841;-72
2024/01/29 13:30:07;;;;;;;3.73;3.53;;;;;;;;;;6124145;23;20440;-72
2024/01/29 13:32:33;;;;;;;3.57;3.47;;;;;;;;;;6149603;23;20401;-72
2024/01/29 13:35:00;;;;;;;5.90;4.70;;;;;;;;;;6149510;23;20514;-72
2024/01/29 13:37:26;;;;;;;10.20;4.00;;;;;;;;;;6125105;23;20236;-72
2024/01/29 13:39:51;;;;;;;4.33;4.03;;;;;;;;;;6151466;23;20409;-72
2024/01/29 13:42:20;;;;;;;4.50;4.10;;;;;;;;;;6125262;23;20574;-72
2024/01/29 13:44:46;;;;;;;7.40;4.97;;;;;;;;;;6152742;23;20393;-72
2024/01/29 13:47:12;;;;;;;7.33;3.70;;;;;;;;;;6152804;23;20847;-71
2024/01/29 13:49:38;;;;;;;9.10;4.80;;;;;;;;;;6151303;23;20385;-71
2024/01/29 13:52:04;;;;;;;5.43;4.20;;;;;;;;;;6150196;23;20487;-71
2024/01/29 13:54:30;;;;;;;3.10;3.00;;;;;;;;;;6153002;23;20376;-71
2024/01/29 13:56:57;;;;;;;3.70;3.47;;;;;;;;;;6152545;23;20404;-72
2024/01/29 13:59:23;;;;;;;3.53;3.43;;;;;;;;;;6152866;23;20522;-72
2024/01/29 14:01:49;;;;;;;4.77;4.33;;;;;;;;;;6152283;23;20385;-72
2024/01/29 14:04:15;;;;;;;4.33;4.13;;;;;;;;;;6153424;23;20523;-72
2024/01/29 14:06:41;;;;;;;3.10;2.67;;;;;;;;;;6125713;23;20392;-72
2024/01/29 14:09:08;;;;;;;5.53;3.60;;;;;;;;;;6152280;23;20422;-72
2024/01/29 14:11:34;;;;;;;5.17;4.03;;;;;;;;;;6152051;23;20763;-72
2024/01/29 14:14:01;;;;;;;6.67;5.47;;;;;;;;;;6152684;23;20389;-72
2024/01/29 14:16:27;;;;;;;7.20;5.10;;;;;;;;;;6151871;23;20871;-72
2024/01/29 14:18:53;;;;;;;4.57;4.17;;;;;;;;;;6152174;23;20396;-72
2024/01/29 14:21:19;;;;;;;7.50;6.20;;;;;;;;;;6151398;23;20456;-72
2024/01/29 14:23:46;;;;;;;5.93;4.93;;;;;;;;;;6152382;23;20475;-71
2024/01/29 14:26:11;;;;;;;2.93;2.83;;;;;;;;;;6124255;23;20817;-72
2024/01/29 14:28:37;;;;;;;3.90;3.63;;;;;;;;;;6151743;23;20421;-72
2024/01/29 14:31:05;;;;;;;5.87;3.80;;;;;;;;;;6151998;23;20705;-72
2024/01/29 14:33:31;;;;;;;4.40;4.20;;;;;;;;;;6151254;23;20385;-72
2024/01/29 14:35:56;;;;;;;4.90;4.50;;;;;;;;;;6152097;23;20391;-72